sensor_id;sensor_type;location;lat;lon;timestamp;pressure;altitude;pressure_sealevel;temperature;humidity
15308;BME280;7755;52.208;6.964;2023-05-19T00:03:21;102327.75;;;10.41;90.09
15308;BME280;7755;52.208;6.964;2023-05-19T00:07:27;102320.84;;;10.38;90.42
15308;BME280;7755;52.208;6.964;2023-05-19T00:11:34;102333.38;;;10.33;91.07
15308;BME280;7755;52.208;6.964;2023-05-19T00:15:38;102332.91;;;10.29;91.67
15308;BME280;7755;52.208;6.964;2023-05-19T00:19:41;102331.06;;;10.30;91.53
15308;BME280;7755;52.208;6.964;2023-05-19T00:23:45;102334.78;;;10.29;92.44
15308;BME280;7755;52.208;6.964;2023-05-19T00:27:50;102327.88;;;10.26;92.81
15308;BME280;7755;52.208;6.964;2023-05-19T00:31:53;102327.25;;;10.24;93.12
15308;BME280;7755;52.208;6.964;2023-05-19T00:35:56;102323.19;;;10.20;93.06
15308;BME280;7755;52.208;6.964;2023-05-19T00:39:59;102319.22;;;10.16;93.38
15308;BME280;7755;52.208;6.964;2023-05-19T00:44:05;102323.34;;;10.12;93.89
15308;BME280;7755;52.208;6.964;2023-05-19T00:48:08;102322.06;;;10.08;94.48
15308;BME280;7755;52.208;6.964;2023-05-19T00:52:11;102319.97;;;10.03;95.20
15308;BME280;7755;52.208;6.964;2023-05-19T00:56:15;102322.00;;;10.01;96.12
15308;BME280;7755;52.208;6.964;2023-05-19T01:00:20;102302.56;;;9.98;96.16
15308;BME280;7755;52.208;6.964;2023-05-19T01:04:23;102304.19;;;9.92;97.20
15308;BME280;7755;52.208;6.964;2023-05-19T01:08:26;102298.13;;;9.90;97.70
15308;BME280;7755;52.208;6.964;2023-05-19T01:12:29;102302.25;;;9.86;98.04
15308;BME280;7755;52.208;6.964;2023-05-19T01:16:36;102301.16;;;9.80;98.55
15308;BME280;7755;52.208;6.964;2023-05-19T01:20:44;102307.19;;;9.76;99.00
15308;BME280;7755;52.208;6.964;2023-05-19T01:25:11;102312.56;;;9.69;99.11
15308;BME280;7755;52.208;6.964;2023-05-19T01:29:29;102307.31;;;9.68;99.60
15308;BME280;7755;52.208;6.964;2023-05-19T01:33:41;102305.19;;;9.63;99.74
15308;BME280;7755;52.208;6.964;2023-05-19T01:37:45;102303.53;;;9.62;100.00
15308;BME280;7755;52.208;6.964;2023-05-19T01:41:49;102309.13;;;9.61;100.00
15308;BME280;7755;52.208;6.964;2023-05-19T01:45:53;102302.84;;;9.60;100.00
15308;BME280;7755;52.208;6.964;2023-05-19T01:50:00;102302.22;;;9.58;99.85
15308;BME280;7755;52.208;6.964;2023-05-19T01:54:03;102297.56;;;9.52;100.00
15308;BME280;7755;52.208;6.964;2023-05-19T01:58:09;102295.25;;;9.49;100.00
15308;BME280;7755;52.208;6.964;2023-05-19T02:02:25;102305.00;;;9.43;100.00
15308;BME280;7755;52.208;6.964;2023-05-19T02:06:37;102312.69;;;9.40;100.00
15308;BME280;7755;52.208;6.964;2023-05-19T02:10:50;102319.53;;;9.36;100.00
15308;BME280;7755;52.208;6.964;2023-05-19T02:15:00;102319.47;;;9.29;100.00
15308;BME280;7755;52.208;6.964;2023-05-19T02:19:19;102325.06;;;9.27;100.00
15308;BME280;7755;52.208;6.964;2023-05-19T02:23:25;102320.88;;;9.25;100.00
15308;BME280;7755;52.208;6.964;2023-05-19T02:27:31;102321.06;;;9.23;100.00
15308;BME280;7755;52.208;6.964;2023-05-19T02:31:33;102317.25;;;9.18;100.00
15308;BME280;7755;52.208;6.964;2023-05-19T02:35:36;102310.97;;;9.17;100.00
15308;BME280;7755;52.208;6.964;2023-05-19T02:39:41;102304.25;;;9.13;100.00
15308;BME280;7755;52.208;6.964;2023-05-19T02:43:44;102299.03;;;9.12;100.00
15308;BME280;7755;52.208;6.964;2023-05-19T02:47:47;102294.16;;;9.07;100.00
15308;BME280;7755;52.208;6.964;2023-05-19T02:51:50;102292.88;;;9.03;100.00
15308;BME280;7755;52.208;6.964;2023-05-19T02:55:54;102288.84;;;8.99;100.00
15308;BME280;7755;52.208;6.964;2023-05-19T02:59:57;102293.84;;;8.95;100.00
15308;BME280;7755;52.208;6.964;2023-05-19T03:04:00;102296.06;;;8.92;100.00
15308;BME280;7755;52.208;6.964;2023-05-19T03:08:03;102291.22;;;8.87;100.00
15308;BME280;7755;52.208;6.964;2023-05-19T03:12:08;102297.22;;;8.83;100.00
15308;BME280;7755;52.208;6.964;2023-05-19T03:16:11;102298.44;;;8.80;100.00
15308;BME280;7755;52.208;6.964;2023-05-19T03:20:14;102290.69;;;8.77;100.00
15308;BME280;7755;52.208;6.964;2023-05-19T03:24:18;102292.75;;;8.75;100.00
15308;BME280;7755;52.208;6.964;2023-05-19T03:28:22;102290.41;;;8.72;100.00
15308;BME280;7755;52.208;6.964;2023-05-19T03:32:27;102295.38;;;8.68;100.00
15308;BME280;7755;52.208;6.964;2023-05-19T03:36:30;102303.69;;;8.67;100.00
15308;BME280;7755;52.208;6.964;2023-05-19T03:40:34;102294.72;;;8.66;100.00
15308;BME280;7755;52.208;6.964;2023-05-19T03:44:44;102290.72;;;8.62;100.00
15308;BME280;7755;52.208;6.964;2023-05-19T03:48:48;102294.47;;;8.61;100.00
15308;BME280;7755;52.208;6.964;2023-05-19T03:52:51;102294.63;;;8.60;100.00
15308;BME280;7755;52.208;6.964;2023-05-19T03:57:01;102291.91;;;8.60;100.00
15308;BME280;7755;52.208;6.964;2023-05-19T04:01:06;102293.78;;;8.59;100.00
15308;BME280;7755;52.208;6.964;2023-05-19T04:05:09;102298.56;;;8.57;100.00
15308;BME280;7755;52.208;6.964;2023-05-19T04:09:13;102297.91;;;8.55;100.00
15308;BME280;7755;52.208;6.964;2023-05-19T04:13:17;102302.94;;;8.58;100.00
15308;BME280;7755;52.208;6.964;2023-05-19T04:17:21;102309.59;;;8.56;100.00
15308;BME280;7755;52.208;6.964;2023-05-19T04:21:29;102310.06;;;8.59;100.00
15308;BME280;7755;52.208;6.964;2023-05-19T04:25:31;102316.78;;;8.63;100.00
15308;BME280;7755;52.208;6.964;2023-05-19T04:29:36;102319.31;;;8.65;100.00
15308;BME280;7755;52.208;6.964;2023-05-19T04:33:41;102315.56;;;8.66;100.00
15308;BME280;7755;52.208;6.964;2023-05-19T04:37:44;102312.84;;;8.66;100.00
15308;BME280;7755;52.208;6.964;2023-05-19T04:41:48;102317.25;;;8.67;100.00
15308;BME280;7755;52.208;6.964;2023-05-19T04:45:52;102311.25;;;8.71;100.00
15308;BME280;7755;52.208;6.964;2023-05-19T04:49:57;102310.50;;;8.78;100.00
15308;BME280;7755;52.208;6.964;2023-05-19T04:54:02;102318.09;;;8.82;100.00
15308;BME280;7755;52.208;6.964;2023-05-19T04:58:07;102319.00;;;8.89;100.00
15308;BME280;7755;52.208;6.964;2023-05-19T05:02:10;102322.84;;;8.95;100.00
15308;BME280;7755;52.208;6.964;2023-05-19T05:06:15;102312.06;;;9.01;100.00
15308;BME280;7755;52.208;6.964;2023-05-19T05:10:19;102312.91;;;9.02;100.00
15308;BME280;7755;52.208;6.964;2023-05-19T05:14:22;102315.50;;;9.10;100.00
15308;BME280;7755;52.208;6.964;2023-05-19T05:18:26;102305.38;;;9.19;100.00
15308;BME280;7755;52.208;6.964;2023-05-19T05:22:35;102302.72;;;9.25;100.00
15308;BME280;7755;52.208;6.964;2023-05-19T05:26:40;102308.69;;;9.36;100.00
15308;BME280;7755;52.208;6.964;2023-05-19T05:30:44;102305.84;;;9.44;100.00
15308;BME280;7755;52.208;6.964;2023-05-19T05:34:49;102308.22;;;9.53;100.00
15308;BME280;7755;52.208;6.964;2023-05-19T05:38:54;102305.84;;;9.65;100.00
15308;BME280;7755;52.208;6.964;2023-05-19T05:42:57;102309.91;;;9.76;100.00
15308;BME280;7755;52.208;6.964;2023-05-19T05:47:05;102293.06;;;9.87;100.00
15308;BME280;7755;52.208;6.964;2023-05-19T05:51:09;102305.66;;;9.95;100.00
15308;BME280;7755;52.208;6.964;2023-05-19T05:55:15;102302.41;;;10.06;100.00
15308;BME280;7755;52.208;6.964;2023-05-19T05:59:19;102301.47;;;10.20;100.00
15308;BME280;7755;52.208;6.964;2023-05-19T06:03:22;102297.56;;;10.29;100.00
15308;BME280;7755;52.208;6.964;2023-05-19T06:07:26;102290.81;;;10.53;100.00
15308;BME280;7755;52.208;6.964;2023-05-19T06:11:35;102302.69;;;10.87;100.00
15308;BME280;7755;52.208;6.964;2023-05-19T06:15:39;102298.19;;;11.20;98.74
15308;BME280;7755;52.208;6.964;2023-05-19T06:19:51;102296.78;;;11.58;97.53
15308;BME280;7755;52.208;6.964;2023-05-19T06:23:55;102301.44;;;12.03;95.98
15308;BME280;7755;52.208;6.964;2023-05-19T06:28:03;102312.03;;;12.58;93.28
15308;BME280;7755;52.208;6.964;2023-05-19T06:32:06;102301.94;;;13.17;90.06
15308;BME280;7755;52.208;6.964;2023-05-19T06:36:09;102308.56;;;13.65;84.81
15308;BME280;7755;52.208;6.964;2023-05-19T06:40:15;102299.38;;;14.10;80.74
15308;BME280;7755;52.208;6.964;2023-05-19T06:44:21;102304.28;;;14.63;78.63
15308;BME280;7755;52.208;6.964;2023-05-19T06:48:24;102300.00;;;15.03;75.03
15308;BME280;7755;52.208;6.964;2023-05-19T06:52:27;102303.78;;;15.21;71.98
15308;BME280;7755;52.208;6.964;2023-05-19T06:56:30;102295.75;;;15.38;70.23
15308;BME280;7755;52.208;6.964;2023-05-19T07:00:35;102307.56;;;15.80;68.11
15308;BME280;7755;52.208;6.964;2023-05-19T07:04:41;102303.63;;;16.23;66.07
15308;BME280;7755;52.208;6.964;2023-05-19T07:08:48;102302.28;;;16.60;62.59
15308;BME280;7755;52.208;6.964;2023-05-19T07:12:53;102308.19;;;16.92;59.00
15308;BME280;7755;52.208;6.964;2023-05-19T07:17:01;102303.75;;;17.03;58.51
15308;BME280;7755;52.208;6.964;2023-05-19T07:21:04;102305.50;;;17.38;57.42
15308;BME280;7755;52.208;6.964;2023-05-19T07:25:09;102295.16;;;17.73;55.20
15308;BME280;7755;52.208;6.964;2023-05-19T07:29:13;102279.06;;;17.99;54.69
15308;BME280;7755;52.208;6.964;2023-05-19T07:33:20;102283.44;;;18.34;54.02
15308;BME280;7755;52.208;6.964;2023-05-19T07:37:24;102285.63;;;18.70;52.61
15308;BME280;7755;52.208;6.964;2023-05-19T07:41:27;102283.31;;;18.84;50.65
15308;BME280;7755;52.208;6.964;2023-05-19T07:45:30;102281.00;;;18.98;50.79
15308;BME280;7755;52.208;6.964;2023-05-19T07:49:37;102287.34;;;19.25;49.16
15308;BME280;7755;52.208;6.964;2023-05-19T07:53:41;102290.66;;;19.54;48.75
15308;BME280;7755;52.208;6.964;2023-05-19T07:57:46;102282.69;;;19.85;48.04
15308;BME280;7755;52.208;6.964;2023-05-19T08:01:52;102275.75;;;20.20;47.02
15308;BME280;7755;52.208;6.964;2023-05-19T08:05:57;102274.69;;;20.31;45.73
15308;BME280;7755;52.208;6.964;2023-05-19T08:10:17;102266.97;;;20.38;44.38
15308;BME280;7755;52.208;6.964;2023-05-19T08:14:20;102261.09;;;20.71;44.15
15308;BME280;7755;52.208;6.964;2023-05-19T08:18:47;102271.66;;;20.90;43.63
15308;BME280;7755;52.208;6.964;2023-05-19T08:23:12;102258.44;;;21.02;42.50
15308;BME280;7755;52.208;6.964;2023-05-19T08:27:15;102263.25;;;21.42;42.25
15308;BME280;7755;52.208;6.964;2023-05-19T08:31:19;102253.84;;;21.48;40.76
15308;BME280;7755;52.208;6.964;2023-05-19T08:35:23;102257.16;;;21.56;40.55
15308;BME280;7755;52.208;6.964;2023-05-19T08:39:28;102241.91;;;21.89;40.30
15308;BME280;7755;52.208;6.964;2023-05-19T08:43:33;102240.50;;;22.22;39.26
15308;BME280;7755;52.208;6.964;2023-05-19T08:47:36;102238.50;;;22.38;37.95
15308;BME280;7755;52.208;6.964;2023-05-19T08:51:45;102230.41;;;22.51;37.66
15308;BME280;7755;52.208;6.964;2023-05-19T08:56:00;102214.88;;;22.50;35.85
15308;BME280;7755;52.208;6.964;2023-05-19T09:00:06;102221.97;;;22.72;36.22
15308;BME280;7755;52.208;6.964;2023-05-19T09:04:14;102211.34;;;22.89;35.76
15308;BME280;7755;52.208;6.964;2023-05-19T09:08:22;102199.03;;;23.10;34.71
15308;BME280;7755;52.208;6.964;2023-05-19T09:12:28;102203.81;;;23.34;35.20
15308;BME280;7755;52.208;6.964;2023-05-19T09:16:32;102194.50;;;23.54;34.16
15308;BME280;7755;52.208;6.964;2023-05-19T09:20:39;102196.31;;;23.00;34.57
15308;BME280;7755;52.208;6.964;2023-05-19T09:24:42;102195.88;;;23.22;34.58
15308;BME280;7755;52.208;6.964;2023-05-19T09:28:47;102195.13;;;23.46;33.60
15308;BME280;7755;52.208;6.964;2023-05-19T09:32:50;102184.69;;;23.66;33.08
15308;BME280;7755;52.208;6.964;2023-05-19T09:36:54;102184.44;;;23.63;32.55
15308;BME280;7755;52.208;6.964;2023-05-19T09:40:59;102176.94;;;23.63;32.83
15308;BME280;7755;52.208;6.964;2023-05-19T09:45:05;102190.38;;;23.80;33.03
15308;BME280;7755;52.208;6.964;2023-05-19T09:49:10;102178.50;;;24.22;32.13
15308;BME280;7755;52.208;6.964;2023-05-19T09:53:16;102176.47;;;24.33;32.34
15308;BME280;7755;52.208;6.964;2023-05-19T09:57:24;102185.56;;;24.39;32.24
15308;BME280;7755;52.208;6.964;2023-05-19T10:01:36;102176.31;;;24.43;31.61
15308;BME280;7755;52.208;6.964;2023-05-19T10:06:01;102179.25;;;24.52;31.87
15308;BME280;7755;52.208;6.964;2023-05-19T10:10:17;102175.28;;;24.39;31.85
15308;BME280;7755;52.208;6.964;2023-05-19T10:14:22;102163.84;;;24.41;31.75
15308;BME280;7755;52.208;6.964;2023-05-19T10:18:28;102172.94;;;24.65;31.55
15308;BME280;7755;52.208;6.964;2023-05-19T10:22:32;102163.72;;;24.70;31.60
15308;BME280;7755;52.208;6.964;2023-05-19T10:26:35;102157.25;;;24.93;30.93
15308;BME280;7755;52.208;6.964;2023-05-19T10:30:40;102146.94;;;24.94;31.11
15308;BME280;7755;52.208;6.964;2023-05-19T10:35:05;102142.41;;;25.17;30.86
15308;BME280;7755;52.208;6.964;2023-05-19T10:39:16;102129.47;;;25.40;29.82
15308;BME280;7755;52.208;6.964;2023-05-19T10:43:24;102132.50;;;25.43;30.22
15308;BME280;7755;52.208;6.964;2023-05-19T10:47:36;102143.09;;;25.27;30.45
15308;BME280;7755;52.208;6.964;2023-05-19T10:51:53;102143.28;;;25.31;30.79
15308;BME280;7755;52.208;6.964;2023-05-19T10:56:26;102125.59;;;25.08;30.41
15308;BME280;7755;52.208;6.964;2023-05-19T11:00:58;102134.00;;;25.03;30.68
15308;BME280;7755;52.208;6.964;2023-05-19T11:05:08;102122.28;;;24.87;30.20
15308;BME280;7755;52.208;6.964;2023-05-19T11:09:14;102119.44;;;24.55;31.51
15308;BME280;7755;52.208;6.964;2023-05-19T11:13:18;102117.41;;;24.17;31.98
15308;BME280;7755;52.208;6.964;2023-05-19T11:17:23;102113.91;;;24.31;31.79
15308;BME280;7755;52.208;6.964;2023-05-19T11:21:46;102120.13;;;24.22;31.52
15308;BME280;7755;52.208;6.964;2023-05-19T11:25:54;102121.03;;;24.18;31.85
15308;BME280;7755;52.208;6.964;2023-05-19T11:29:58;102117.91;;;24.01;32.05
15308;BME280;7755;52.208;6.964;2023-05-19T11:34:03;102102.19;;;23.91;31.79
15308;BME280;7755;52.208;6.964;2023-05-19T11:38:09;102108.09;;;23.84;31.66
15308;BME280;7755;52.208;6.964;2023-05-19T11:42:14;102110.41;;;23.77;31.83
15308;BME280;7755;52.208;6.964;2023-05-19T11:46:32;102111.06;;;23.40;32.12
15308;BME280;7755;52.208;6.964;2023-05-19T11:50:59;102098.91;;;23.60;32.43
15308;BME280;7755;52.208;6.964;2023-05-19T11:55:19;102111.03;;;24.17;32.72
15308;BME280;7755;52.208;6.964;2023-05-19T11:59:30;102104.78;;;24.49;31.61
15308;BME280;7755;52.208;6.964;2023-05-19T12:03:43;102099.03;;;24.78;31.62
15308;BME280;7755;52.208;6.964;2023-05-19T12:07:48;102106.03;;;25.13;31.18
15308;BME280;7755;52.208;6.964;2023-05-19T12:11:53;102091.59;;;25.25;30.42
15308;BME280;7755;52.208;6.964;2023-05-19T12:15:59;102083.00;;;25.54;29.83
15308;BME280;7755;52.208;6.964;2023-05-19T12:20:04;102078.44;;;25.72;30.03
15308;BME280;7755;52.208;6.964;2023-05-19T12:24:08;102088.03;;;26.21;29.65
15308;BME280;7755;52.208;6.964;2023-05-19T12:28:11;102083.56;;;26.47;28.80
15308;BME280;7755;52.208;6.964;2023-05-19T12:32:17;102081.31;;;26.49;29.46
15308;BME280;7755;52.208;6.964;2023-05-19T12:36:51;102081.75;;;26.15;29.95
15308;BME280;7755;52.208;6.964;2023-05-19T12:41:18;102079.50;;;26.03;29.60
15308;BME280;7755;52.208;6.964;2023-05-19T12:45:42;102072.97;;;26.22;28.69
15308;BME280;7755;52.208;6.964;2023-05-19T12:50:08;102058.72;;;26.23;28.63
15308;BME280;7755;52.208;6.964;2023-05-19T12:54:13;102056.38;;;26.39;28.38
15308;BME280;7755;52.208;6.964;2023-05-19T12:58:17;102057.94;;;26.45;28.08
15308;BME280;7755;52.208;6.964;2023-05-19T13:02:23;102053.97;;;26.24;28.01
15308;BME280;7755;52.208;6.964;2023-05-19T13:06:27;102046.91;;;26.26;27.52
15308;BME280;7755;52.208;6.964;2023-05-19T13:10:32;102038.53;;;26.40;29.01
15308;BME280;7755;52.208;6.964;2023-05-19T13:14:36;102041.31;;;26.76;29.39
15308;BME280;7755;52.208;6.964;2023-05-19T13:18:46;102048.13;;;26.92;27.59
15308;BME280;7755;52.208;6.964;2023-05-19T13:22:53;102040.47;;;26.76;28.62
15308;BME280;7755;52.208;6.964;2023-05-19T13:27:11;102039.91;;;26.65;28.15
15308;BME280;7755;52.208;6.964;2023-05-19T13:31:23;102038.75;;;26.66;28.29
15308;BME280;7755;52.208;6.964;2023-05-19T13:35:43;102035.09;;;26.57;28.46
15308;BME280;7755;52.208;6.964;2023-05-19T13:39:59;102026.72;;;26.07;29.38
15308;BME280;7755;52.208;6.964;2023-05-19T13:44:02;102019.78;;;25.82;28.93
15308;BME280;7755;52.208;6.964;2023-05-19T13:48:06;102017.69;;;26.01;29.13
15308;BME280;7755;52.208;6.964;2023-05-19T13:52:16;102022.13;;;26.02;29.38
15308;BME280;7755;52.208;6.964;2023-05-19T13:56:21;102028.13;;;25.96;29.42
15308;BME280;7755;52.208;6.964;2023-05-19T14:00:24;102022.97;;;25.89;29.64
15308;BME280;7755;52.208;6.964;2023-05-19T14:04:35;102014.03;;;26.01;28.73
15308;BME280;7755;52.208;6.964;2023-05-19T14:08:39;102017.25;;;26.08;29.15
15308;BME280;7755;52.208;6.964;2023-05-19T14:12:44;102023.78;;;25.35;29.10
15308;BME280;7755;52.208;6.964;2023-05-19T14:17:08;102018.88;;;25.13;29.57
15308;BME280;7755;52.208;6.964;2023-05-19T14:21:18;102008.63;;;25.13;29.57
15308;BME280;7755;52.208;6.964;2023-05-19T14:25:47;102009.25;;;24.91;29.78
15308;BME280;7755;52.208;6.964;2023-05-19T14:30:18;102011.16;;;25.10;29.47
15308;BME280;7755;52.208;6.964;2023-05-19T14:34:35;102013.75;;;25.20;29.64
15308;BME280;7755;52.208;6.964;2023-05-19T14:38:48;102005.47;;;25.01;29.48
15308;BME280;7755;52.208;6.964;2023-05-19T14:42:52;102006.97;;;24.80;29.72
15308;BME280;7755;52.208;6.964;2023-05-19T14:46:57;102012.94;;;24.54;30.21
15308;BME280;7755;52.208;6.964;2023-05-19T14:51:01;102007.50;;;24.63;30.72
15308;BME280;7755;52.208;6.964;2023-05-19T14:55:07;102006.06;;;24.65;30.17
15308;BME280;7755;52.208;6.964;2023-05-19T14:59:15;102007.16;;;24.50;30.56
15308;BME280;7755;52.208;6.964;2023-05-19T15:03:20;101997.09;;;24.55;29.96
15308;BME280;7755;52.208;6.964;2023-05-19T15:07:43;102004.38;;;24.13;30.67
15308;BME280;7755;52.208;6.964;2023-05-19T15:12:01;101999.19;;;23.87;30.59
15308;BME280;7755;52.208;6.964;2023-05-19T15:16:22;101994.59;;;23.78;31.17
15308;BME280;7755;52.208;6.964;2023-05-19T15:20:49;101987.47;;;23.72;30.96
15308;BME280;7755;52.208;6.964;2023-05-19T15:24:58;101974.97;;;23.69;31.34
15308;BME280;7755;52.208;6.964;2023-05-19T15:29:01;101980.56;;;23.88;30.88
15308;BME280;7755;52.208;6.964;2023-05-19T15:33:04;101985.22;;;23.74;30.91
15308;BME280;7755;52.208;6.964;2023-05-19T15:37:09;101989.91;;;23.49;31.10
15308;BME280;7755;52.208;6.964;2023-05-19T15:41:12;101992.06;;;23.33;31.57
15308;BME280;7755;52.208;6.964;2023-05-19T15:45:20;101973.22;;;23.30;31.55
15308;BME280;7755;52.208;6.964;2023-05-19T15:49:29;101989.63;;;23.27;31.45
15308;BME280;7755;52.208;6.964;2023-05-19T15:53:33;101982.19;;;23.22;31.88
15308;BME280;7755;52.208;6.964;2023-05-19T15:57:38;101977.88;;;23.11;32.32
15308;BME280;7755;52.208;6.964;2023-05-19T16:01:56;101980.19;;;23.04;32.04
15308;BME280;7755;52.208;6.964;2023-05-19T16:06:11;101985.97;;;23.07;31.65
15308;BME280;7755;52.208;6.964;2023-05-19T16:10:32;101972.44;;;23.01;32.29
15308;BME280;7755;52.208;6.964;2023-05-19T16:14:45;101966.19;;;22.85;31.87
15308;BME280;7755;52.208;6.964;2023-05-19T16:18:48;101973.53;;;22.71;31.92
15308;BME280;7755;52.208;6.964;2023-05-19T16:22:51;101959.28;;;22.53;32.21
15308;BME280;7755;52.208;6.964;2023-05-19T16:26:57;101969.81;;;22.51;32.61
15308;BME280;7755;52.208;6.964;2023-05-19T16:31:00;101964.50;;;22.55;32.91
15308;BME280;7755;52.208;6.964;2023-05-19T16:35:04;101969.38;;;22.68;32.72
15308;BME280;7755;52.208;6.964;2023-05-19T16:39:13;101964.94;;;22.72;32.45
15308;BME280;7755;52.208;6.964;2023-05-19T16:43:18;101963.03;;;22.68;32.22
15308;BME280;7755;52.208;6.964;2023-05-19T16:47:21;101972.63;;;22.46;32.26
15308;BME280;7755;52.208;6.964;2023-05-19T16:51:26;101967.19;;;22.36;32.66
15308;BME280;7755;52.208;6.964;2023-05-19T16:55:32;101967.28;;;22.21;32.36
15308;BME280;7755;52.208;6.964;2023-05-19T16:59:56;101967.91;;;22.07;32.61
15308;BME280;7755;52.208;6.964;2023-05-19T17:04:18;101958.81;;;22.02;32.83
15308;BME280;7755;52.208;6.964;2023-05-19T17:08:30;101953.53;;;22.00;32.70
15308;BME280;7755;52.208;6.964;2023-05-19T17:12:33;101955.47;;;22.00;32.71
15308;BME280;7755;52.208;6.964;2023-05-19T17:16:39;101954.41;;;21.96;32.50
15308;BME280;7755;52.208;6.964;2023-05-19T17:20:42;101962.25;;;21.84;32.17
15308;BME280;7755;52.208;6.964;2023-05-19T17:24:46;101962.25;;;21.84;32.91
15308;BME280;7755;52.208;6.964;2023-05-19T17:28:50;101957.78;;;21.88;32.99
15308;BME280;7755;52.208;6.964;2023-05-19T17:32:55;101958.13;;;21.76;32.63
15308;BME280;7755;52.208;6.964;2023-05-19T17:37:00;101955.38;;;21.71;32.62
15308;BME280;7755;52.208;6.964;2023-05-19T17:41:04;101956.59;;;21.55;32.90
15308;BME280;7755;52.208;6.964;2023-05-19T17:45:10;101958.25;;;21.45;33.14
15308;BME280;7755;52.208;6.964;2023-05-19T17:49:15;101964.72;;;21.15;33.45
15308;BME280;7755;52.208;6.964;2023-05-19T17:53:18;101970.25;;;21.05;33.87
15308;BME280;7755;52.208;6.964;2023-05-19T17:57:29;101964.72;;;21.05;34.40
15308;BME280;7755;52.208;6.964;2023-05-19T18:01:34;101967.25;;;20.96;34.42
15308;BME280;7755;52.208;6.964;2023-05-19T18:05:39;101966.41;;;20.86;34.66
15308;BME280;7755;52.208;6.964;2023-05-19T18:09:44;101973.34;;;20.78;35.06
15308;BME280;7755;52.208;6.964;2023-05-19T18:13:47;101970.31;;;20.69;35.52
15308;BME280;7755;52.208;6.964;2023-05-19T18:17:50;101972.53;;;20.52;35.87
15308;BME280;7755;52.208;6.964;2023-05-19T18:21:55;101979.16;;;20.51;36.20
15308;BME280;7755;52.208;6.964;2023-05-19T18:25:59;101982.19;;;20.44;36.41
15308;BME280;7755;52.208;6.964;2023-05-19T18:30:04;101986.84;;;20.29;36.73
15308;BME280;7755;52.208;6.964;2023-05-19T18:34:08;101995.13;;;20.18;37.01
15308;BME280;7755;52.208;6.964;2023-05-19T18:38:35;101994.81;;;20.05;37.27
15308;BME280;7755;52.208;6.964;2023-05-19T18:42:38;101991.19;;;19.89;37.71
15308;BME280;7755;52.208;6.964;2023-05-19T18:46:41;102002.47;;;19.77;38.00
15308;BME280;7755;52.208;6.964;2023-05-19T18:50:47;101995.50;;;19.59;38.28
15308;BME280;7755;52.208;6.964;2023-05-19T18:54:52;101993.22;;;19.46;38.57
15308;BME280;7755;52.208;6.964;2023-05-19T18:58:55;101996.72;;;19.36;38.91
15308;BME280;7755;52.208;6.964;2023-05-19T19:02:59;102000.81;;;19.24;39.33
15308;BME280;7755;52.208;6.964;2023-05-19T19:07:05;101996.88;;;19.15;39.57
15308;BME280;7755;52.208;6.964;2023-05-19T19:11:10;102002.59;;;19.03;39.97
15308;BME280;7755;52.208;6.964;2023-05-19T19:15:13;102010.81;;;18.93;40.01
15308;BME280;7755;52.208;6.964;2023-05-19T19:19:17;102014.56;;;18.81;40.24
15308;BME280;7755;52.208;6.964;2023-05-19T19:23:21;102027.69;;;18.69;40.59
15308;BME280;7755;52.208;6.964;2023-05-19T19:27:35;102028.13;;;18.56;40.96
15308;BME280;7755;52.208;6.964;2023-05-19T19:31:47;102028.78;;;18.41;41.10
15308;BME280;7755;52.208;6.964;2023-05-19T19:35:59;102037.22;;;18.30;41.42
15308;BME280;7755;52.208;6.964;2023-05-19T19:40:17;102037.31;;;18.13;41.71
15308;BME280;7755;52.208;6.964;2023-05-19T19:44:40;102041.00;;;17.96;42.09
15308;BME280;7755;52.208;6.964;2023-05-19T19:48:58;102045.53;;;17.86;42.50
15308;BME280;7755;52.208;6.964;2023-05-19T19:53:04;102047.06;;;17.77;42.61
15308;BME280;7755;52.208;6.964;2023-05-19T19:57:13;102045.81;;;17.67;42.98
15308;BME280;7755;52.208;6.964;2023-05-19T20:01:19;102053.38;;;17.55;43.21
15308;BME280;7755;52.208;6.964;2023-05-19T20:05:24;102059.81;;;17.44;43.65
15308;BME280;7755;52.208;6.964;2023-05-19T20:09:31;102053.00;;;17.30;44.02
15308;BME280;7755;52.208;6.964;2023-05-19T20:13:36;102053.66;;;17.20;44.24
15308;BME280;7755;52.208;6.964;2023-05-19T20:17:49;102060.94;;;17.09;44.50
15308;BME280;7755;52.208;6.964;2023-05-19T20:22:07;102057.94;;;16.94;44.61
15308;BME280;7755;52.208;6.964;2023-05-19T20:26:17;102063.25;;;16.84;44.93
15308;BME280;7755;52.208;6.964;2023-05-19T20:30:21;102062.03;;;16.75;45.25
15308;BME280;7755;52.208;6.964;2023-05-19T20:34:42;102063.13;;;16.62;45.76
15308;BME280;7755;52.208;6.964;2023-05-19T20:38:56;102070.34;;;16.51;45.97
15308;BME280;7755;52.208;6.964;2023-05-19T20:42:59;102075.91;;;16.40;46.32
15308;BME280;7755;52.208;6.964;2023-05-19T20:47:07;102077.75;;;16.22;47.06
15308;BME280;7755;52.208;6.964;2023-05-19T20:51:14;102072.56;;;16.09;47.38
15308;BME280;7755;52.208;6.964;2023-05-19T20:55:17;102064.03;;;15.94;47.68
15308;BME280;7755;52.208;6.964;2023-05-19T20:59:21;102061.69;;;15.86;48.14
15308;BME280;7755;52.208;6.964;2023-05-19T21:03:24;102082.91;;;15.78;48.57
15308;BME280;7755;52.208;6.964;2023-05-19T21:07:35;102080.78;;;15.69;49.48
15308;BME280;7755;52.208;6.964;2023-05-19T21:11:39;102075.03;;;15.59;50.55
15308;BME280;7755;52.208;6.964;2023-05-19T21:15:42;102084.09;;;15.47;51.45
15308;BME280;7755;52.208;6.964;2023-05-19T21:19:45;102069.09;;;15.38;53.34
15308;BME280;7755;52.208;6.964;2023-05-19T21:23:52;102080.66;;;15.28;54.38
15308;BME280;7755;52.208;6.964;2023-05-19T21:27:56;102079.69;;;15.23;55.37
15308;BME280;7755;52.208;6.964;2023-05-19T21:31:59;102083.25;;;15.23;55.93
15308;BME280;7755;52.208;6.964;2023-05-19T21:36:03;102083.25;;;15.23;56.50
15308;BME280;7755;52.208;6.964;2023-05-19T21:40:09;102087.91;;;15.11;58.02
15308;BME280;7755;52.208;6.964;2023-05-19T21:44:12;102089.47;;;15.07;59.02
15308;BME280;7755;52.208;6.964;2023-05-19T21:48:15;102091.59;;;15.05;58.94
15308;BME280;7755;52.208;6.964;2023-05-19T21:52:18;102086.44;;;14.97;60.44